sensor_id;sensor_type;location;lat;lon;timestamp;pressure;altitude;pressure_sealevel;temperature;humidity
73383;BME280;61600;48.126;11.542;2023-05-31T00:00:12;95885.47;;;18.79;40.85
73383;BME280;61600;48.126;11.542;2023-05-31T00:02:38;95887.91;;;18.81;40.55
73383;BME280;61600;48.126;11.542;2023-05-31T00:05:04;95878.56;;;18.65;40.42
73383;BME280;61600;48.126;11.542;2023-05-31T00:07:30;95885.03;;;18.69;40.45
73383;BME280;61600;48.126;11.542;2023-05-31T00:09:56;95884.66;;;18.79;40.33
73383;BME280;61600;48.126;11.542;2023-05-31T00:12:21;95888.28;;;18.71;39.96
73383;BME280;61600;48.126;11.542;2023-05-31T00:14:47;95878.91;;;18.63;40.10
73383;BME280;61600;48.126;11.542;2023-05-31T00:17:13;95880.09;;;18.54;40.09
73383;BME280;61600;48.126;11.542;2023-05-31T00:19:39;95885.44;;;18.50;40.01
73383;BME280;61600;48.126;11.542;2023-05-31T00:22:05;95880.56;;;18.56;39.73
73383;BME280;61600;48.126;11.542;2023-05-31T00:24:31;95881.25;;;18.35;40.04
73383;BME280;61600;48.126;11.542;2023-05-31T00:26:57;95882.84;;;18.45;39.55
73383;BME280;61600;48.126;11.542;2023-05-31T00:29:25;95883.34;;;18.47;39.69
73383;BME280;61600;48.126;11.542;2023-05-31T00:31:51;95884.81;;;18.36;39.43
73383;BME280;61600;48.126;11.542;2023-05-31T00:34:17;95887.44;;;18.32;40.05
73383;BME280;61600;48.126;11.542;2023-05-31T00:36:43;95880.31;;;18.23;39.71
73383;BME280;61600;48.126;11.542;2023-05-31T00:39:08;95878.34;;;18.32;39.71
73383;BME280;61600;48.126;11.542;2023-05-31T00:41:34;95887.16;;;18.08;40.11
73383;BME280;61600;48.126;11.542;2023-05-31T00:44:03;95873.88;;;18.10;39.77
73383;BME280;61600;48.126;11.542;2023-05-31T00:46:33;95882.44;;;18.17;40.05
73383;BME280;61600;48.126;11.542;2023-05-31T00:49:00;95889.09;;;18.08;39.96
73383;BME280;61600;48.126;11.542;2023-05-31T00:51:27;95889.25;;;18.03;39.96
73383;BME280;61600;48.126;11.542;2023-05-31T00:53:55;95887.63;;;18.02;40.24
73383;BME280;61600;48.126;11.542;2023-05-31T00:56:28;95893.44;;;18.09;40.15
73383;BME280;61600;48.126;11.542;2023-05-31T00:58:56;95888.47;;;17.93;40.06
73383;BME280;61600;48.126;11.542;2023-05-31T01:01:23;95887.66;;;17.93;40.40
73383;BME280;61600;48.126;11.542;2023-05-31T01:03:57;95891.38;;;17.97;39.88
73383;BME280;61600;48.126;11.542;2023-05-31T01:06:23;95896.56;;;17.90;39.68
73383;BME280;61600;48.126;11.542;2023-05-31T01:08:50;95896.56;;;18.07;39.45
73383;BME280;61600;48.126;11.542;2023-05-31T01:11:45;95898.50;;;17.98;39.85
73383;BME280;61600;48.126;11.542;2023-05-31T01:14:46;95904.50;;;18.00;39.58
73383;BME280;61600;48.126;11.542;2023-05-31T01:17:39;95903.53;;;18.05;39.71
73383;BME280;61600;48.126;11.542;2023-05-31T01:20:11;95896.88;;;18.06;39.33
73383;BME280;61600;48.126;11.542;2023-05-31T01:23:03;95897.84;;;17.84;39.89
73383;BME280;61600;48.126;11.542;2023-05-31T01:28:34;95904.66;;;17.78;40.30
73383;BME280;61600;48.126;11.542;2023-05-31T01:31:02;95893.84;;;17.73;39.84
73383;BME280;61600;48.126;11.542;2023-05-31T01:33:30;95887.19;;;17.74;39.72
73383;BME280;61600;48.126;11.542;2023-05-31T01:35:56;95886.22;;;17.70;40.07
73383;BME280;61600;48.126;11.542;2023-05-31T01:38:22;95891.06;;;17.81;39.82
73383;BME280;61600;48.126;11.542;2023-05-31T01:40:48;95881.38;;;17.58;39.74
73383;BME280;61600;48.126;11.542;2023-05-31T01:43:16;95884.78;;;17.72;39.67
73383;BME280;61600;48.126;11.542;2023-05-31T01:45:43;95888.81;;;17.58;39.84
73383;BME280;61600;48.126;11.542;2023-05-31T01:48:09;95876.34;;;17.60;39.70
73383;BME280;61600;48.126;11.542;2023-05-31T01:50:35;95887.00;;;17.53;39.83
73383;BME280;61600;48.126;11.542;2023-05-31T01:53:03;95884.25;;;17.44;40.30
73383;BME280;61600;48.126;11.542;2023-05-31T01:55:29;95883.09;;;17.45;40.20
73383;BME280;61600;48.126;11.542;2023-05-31T01:57:56;95882.50;;;17.48;39.92
73383;BME280;61600;48.126;11.542;2023-05-31T02:00:23;95880.19;;;17.42;40.17
73383;BME280;61600;48.126;11.542;2023-05-31T02:02:50;95889.44;;;17.55;39.75
73383;BME280;61600;48.126;11.542;2023-05-31T02:05:16;95883.59;;;17.39;39.77
73383;BME280;61600;48.126;11.542;2023-05-31T02:07:43;95879.41;;;17.41;39.71
73383;BME280;61600;48.126;11.542;2023-05-31T02:10:11;95877.94;;;17.35;40.36
73383;BME280;61600;48.126;11.542;2023-05-31T02:12:37;95884.06;;;17.32;40.58
73383;BME280;61600;48.126;11.542;2023-05-31T02:15:04;95880.53;;;17.40;40.49
73383;BME280;61600;48.126;11.542;2023-05-31T02:17:30;95887.19;;;17.48;39.98
73383;BME280;61600;48.126;11.542;2023-05-31T02:19:58;95895.06;;;17.32;40.93
73383;BME280;61600;48.126;11.542;2023-05-31T02:22:24;95891.19;;;17.42;40.35
73383;BME280;61600;48.126;11.542;2023-05-31T02:24:50;95880.00;;;17.21;40.86
73383;BME280;61600;48.126;11.542;2023-05-31T02:27:16;95887.63;;;17.16;40.66
73383;BME280;61600;48.126;11.542;2023-05-31T02:29:44;95879.81;;;17.01;41.23
73383;BME280;61600;48.126;11.542;2023-05-31T02:32:10;95888.22;;;17.04;40.91
73383;BME280;61600;48.126;11.542;2023-05-31T02:34:36;95883.88;;;17.12;41.05
73383;BME280;61600;48.126;11.542;2023-05-31T02:37:02;95886.47;;;17.08;41.32
73383;BME280;61600;48.126;11.542;2023-05-31T02:39:28;95878.88;;;17.14;40.72
73383;BME280;61600;48.126;11.542;2023-05-31T02:41:55;95890.84;;;17.09;40.79
73383;BME280;61600;48.126;11.542;2023-05-31T02:44:21;95880.16;;;16.99;41.27
73383;BME280;61600;48.126;11.542;2023-05-31T02:46:46;95882.66;;;16.78;41.41
73383;BME280;61600;48.126;11.542;2023-05-31T02:49:12;95881.41;;;16.93;41.86
73383;BME280;61600;48.126;11.542;2023-05-31T02:51:38;95886.56;;;16.86;41.15
73383;BME280;61600;48.126;11.542;2023-05-31T02:54:04;95880.88;;;16.74;42.04
73383;BME280;61600;48.126;11.542;2023-05-31T02:56:30;95882.66;;;16.70;42.11
73383;BME280;61600;48.126;11.542;2023-05-31T02:58:56;95878.19;;;16.52;41.89
73383;BME280;61600;48.126;11.542;2023-05-31T03:01:21;95885.22;;;16.66;41.55
73383;BME280;61600;48.126;11.542;2023-05-31T03:03:47;95887.91;;;16.58;41.97
73383;BME280;61600;48.126;11.542;2023-05-31T03:06:13;95882.31;;;16.63;41.66
73383;BME280;61600;48.126;11.542;2023-05-31T03:08:45;95882.78;;;16.65;42.12
73383;BME280;61600;48.126;11.542;2023-05-31T03:11:11;95886.50;;;16.60;42.12
73383;BME280;61600;48.126;11.542;2023-05-31T03:13:37;95890.53;;;16.63;42.33
73383;BME280;61600;48.126;11.542;2023-05-31T03:16:04;95894.13;;;16.72;41.95
73383;BME280;61600;48.126;11.542;2023-05-31T03:18:30;95886.50;;;16.69;42.08
73383;BME280;61600;48.126;11.542;2023-05-31T03:20:55;95892.16;;;16.64;42.15
73383;BME280;61600;48.126;11.542;2023-05-31T03:23:21;95892.53;;;16.71;42.04
73383;BME280;61600;48.126;11.542;2023-05-31T03:25:47;95887.72;;;16.85;41.79
73383;BME280;61600;48.126;11.542;2023-05-31T03:28:13;95892.47;;;16.62;42.19
73383;BME280;61600;48.126;11.542;2023-05-31T03:30:38;95894.09;;;16.63;42.29
73383;BME280;61600;48.126;11.542;2023-05-31T03:33:04;95898.44;;;16.64;42.41
73383;BME280;61600;48.126;11.542;2023-05-31T03:35:30;95900.44;;;16.72;41.94
73383;BME280;61600;48.126;11.542;2023-05-31T03:37:55;95901.72;;;16.75;41.82
73383;BME280;61600;48.126;11.542;2023-05-31T03:40:21;95905.09;;;16.63;41.87
73383;BME280;61600;48.126;11.542;2023-05-31T03:42:47;95901.88;;;16.70;42.00
73383;BME280;61600;48.126;11.542;2023-05-31T03:45:13;95897.19;;;16.70;42.25
73383;BME280;61600;48.126;11.542;2023-05-31T03:47:39;95905.81;;;16.55;42.53
73383;BME280;61600;48.126;11.542;2023-05-31T03:50:05;95898.53;;;16.50;42.01
73383;BME280;61600;48.126;11.542;2023-05-31T03:52:32;95906.75;;;16.50;42.51
73383;BME280;61600;48.126;11.542;2023-05-31T03:54:58;95906.28;;;16.48;42.33
73383;BME280;61600;48.126;11.542;2023-05-31T03:57:23;95909.13;;;16.66;42.37
73383;BME280;61600;48.126;11.542;2023-05-31T03:59:49;95897.84;;;16.67;42.24
73383;BME280;61600;48.126;11.542;2023-05-31T04:02:15;95904.00;;;16.50;42.19
73383;BME280;61600;48.126;11.542;2023-05-31T04:04:40;95898.91;;;16.58;42.07
73383;BME280;61600;48.126;11.542;2023-05-31T04:07:06;95901.41;;;16.76;42.14
73383;BME280;61600;48.126;11.542;2023-05-31T04:09:32;95900.97;;;16.52;42.10
73383;BME280;61600;48.126;11.542;2023-05-31T04:11:58;95897.50;;;16.69;42.49
73383;BME280;61600;48.126;11.542;2023-05-31T04:14:23;95898.13;;;16.66;42.46
73383;BME280;61600;48.126;11.542;2023-05-31T04:16:49;95908.19;;;16.70;42.18
73383;BME280;61600;48.126;11.542;2023-05-31T04:19:15;95904.03;;;16.81;42.18
73383;BME280;61600;48.126;11.542;2023-05-31T04:21:41;95901.06;;;16.69;42.57
73383;BME280;61600;48.126;11.542;2023-05-31T04:24:06;95903.81;;;16.69;42.83
73383;BME280;61600;48.126;11.542;2023-05-31T04:26:32;95912.09;;;16.78;42.91
73383;BME280;61600;48.126;11.542;2023-05-31T04:28:58;95907.66;;;16.60;43.09
73383;BME280;61600;48.126;11.542;2023-05-31T04:31:24;95909.53;;;16.81;42.62
73383;BME280;61600;48.126;11.542;2023-05-31T04:33:51;95898.72;;;16.85;42.20
73383;BME280;61600;48.126;11.542;2023-05-31T04:36:21;95905.50;;;16.96;42.52
73383;BME280;61600;48.126;11.542;2023-05-31T04:38:48;95907.56;;;16.82;42.98
73383;BME280;61600;48.126;11.542;2023-05-31T04:41:14;95916.19;;;16.97;41.98
73383;BME280;61600;48.126;11.542;2023-05-31T04:43:42;95914.59;;;17.05;42.42
73383;BME280;61600;48.126;11.542;2023-05-31T04:46:08;95914.47;;;17.19;41.86
73383;BME280;61600;48.126;11.542;2023-05-31T04:48:36;95911.59;;;17.41;41.31
73383;BME280;61600;48.126;11.542;2023-05-31T04:51:02;95904.63;;;17.35;41.31
73383;BME280;61600;48.126;11.542;2023-05-31T04:53:29;95915.63;;;17.35;41.14
73383;BME280;61600;48.126;11.542;2023-05-31T04:55:55;95913.50;;;17.32;41.37
73383;BME280;61600;48.126;11.542;2023-05-31T04:58:21;95908.50;;;17.34;40.79
73383;BME280;61600;48.126;11.542;2023-05-31T05:00:47;95916.13;;;17.37;41.08
73383;BME280;61600;48.126;11.542;2023-05-31T05:03:13;95917.25;;;17.44;40.98
73383;BME280;61600;48.126;11.542;2023-05-31T05:05:39;95924.84;;;17.30;41.58
73383;BME280;61600;48.126;11.542;2023-05-31T05:08:07;95921.78;;;17.49;41.32
73383;BME280;61600;48.126;11.542;2023-05-31T05:10:32;95925.00;;;17.42;41.31
73383;BME280;61600;48.126;11.542;2023-05-31T05:12:58;95920.50;;;17.46;40.82
73383;BME280;61600;48.126;11.542;2023-05-31T05:15:24;95920.81;;;17.45;41.28
73383;BME280;61600;48.126;11.542;2023-05-31T05:17:50;95931.81;;;17.54;41.22
73383;BME280;61600;48.126;11.542;2023-05-31T05:20:16;95928.91;;;17.41;41.32
73383;BME280;61600;48.126;11.542;2023-05-31T05:22:42;95930.69;;;17.55;41.34
73383;BME280;61600;48.126;11.542;2023-05-31T05:25:10;95921.19;;;17.69;40.65
73383;BME280;61600;48.126;11.542;2023-05-31T05:27:36;95921.81;;;17.66;40.87
73383;BME280;61600;48.126;11.542;2023-05-31T05:30:02;95924.06;;;17.56;41.65
73383;BME280;61600;48.126;11.542;2023-05-31T05:32:28;95922.78;;;17.70;41.09
73383;BME280;61600;48.126;11.542;2023-05-31T05:34:54;95926.00;;;17.55;41.28
73383;BME280;61600;48.126;11.542;2023-05-31T05:37:22;95933.44;;;17.55;41.40
73383;BME280;61600;48.126;11.542;2023-05-31T05:39:50;95927.31;;;17.66;41.35
73383;BME280;61600;48.126;11.542;2023-05-31T05:42:16;95926.00;;;17.55;41.80
73383;BME280;61600;48.126;11.542;2023-05-31T05:44:42;95932.03;;;17.83;40.55
73383;BME280;61600;48.126;11.542;2023-05-31T05:47:08;95923.47;;;17.76;40.93
73383;BME280;61600;48.126;11.542;2023-05-31T05:49:33;95922.47;;;17.89;40.56
73383;BME280;61600;48.126;11.542;2023-05-31T05:51:59;95922.63;;;18.01;40.41
73383;BME280;61600;48.126;11.542;2023-05-31T05:54:25;95916.78;;;18.11;40.77
73383;BME280;61600;48.126;11.542;2023-05-31T05:56:51;95919.50;;;18.20;40.39
73383;BME280;61600;48.126;11.542;2023-05-31T05:59:16;95920.00;;;18.22;40.44
73383;BME280;61600;48.126;11.542;2023-05-31T06:01:42;95914.31;;;18.35;40.35
73383;BME280;61600;48.126;11.542;2023-05-31T06:04:08;95923.03;;;18.37;39.95
73383;BME280;61600;48.126;11.542;2023-05-31T06:06:34;95927.09;;;18.57;40.14
73383;BME280;61600;48.126;11.542;2023-05-31T06:09:01;95918.47;;;18.59;39.53
73383;BME280;61600;48.126;11.542;2023-05-31T06:11:26;95916.03;;;18.66;40.01
73383;BME280;61600;48.126;11.542;2023-05-31T06:13:52;95917.28;;;18.68;39.83
73383;BME280;61600;48.126;11.542;2023-05-31T06:16:23;95918.31;;;18.64;39.82
73383;BME280;61600;48.126;11.542;2023-05-31T06:18:49;95914.38;;;18.73;39.73
73383;BME280;61600;48.126;11.542;2023-05-31T06:21:15;95915.00;;;18.79;39.25
73383;BME280;61600;48.126;11.542;2023-05-31T06:23:41;95924.22;;;18.83;39.41
73383;BME280;61600;48.126;11.542;2023-05-31T06:26:07;95917.28;;;18.77;39.86
73383;BME280;61600;48.126;11.542;2023-05-31T06:28:33;95930.53;;;18.92;39.38
73383;BME280;61600;48.126;11.542;2023-05-31T06:30:58;95920.53;;;19.08;39.65
73383;BME280;61600;48.126;11.542;2023-05-31T06:33:26;95931.56;;;19.08;39.57
73383;BME280;61600;48.126;11.542;2023-05-31T06:35:52;95930.19;;;19.23;39.29
73383;BME280;61600;48.126;11.542;2023-05-31T06:38:18;95928.28;;;19.15;39.82
73383;BME280;61600;48.126;11.542;2023-05-31T06:40:47;95936.97;;;19.25;39.84
73383;BME280;61600;48.126;11.542;2023-05-31T06:43:14;95932.41;;;19.29;38.77
73383;BME280;61600;48.126;11.542;2023-05-31T06:45:41;95929.53;;;19.55;43.04
73383;BME280;61600;48.126;11.542;2023-05-31T06:48:07;95930.88;;;19.49;39.46
73383;BME280;61600;48.126;11.542;2023-05-31T06:50:34;95929.00;;;19.62;39.04
73383;BME280;61600;48.126;11.542;2023-05-31T06:53:00;95933.56;;;19.99;40.31
73383;BME280;61600;48.126;11.542;2023-05-31T06:55:26;95933.31;;;20.33;38.84
73383;BME280;61600;48.126;11.542;2023-05-31T06:57:52;95924.09;;;20.09;38.16
73383;BME280;61600;48.126;11.542;2023-05-31T07:00:18;95917.31;;;20.18;38.08
73383;BME280;61600;48.126;11.542;2023-05-31T07:02:45;95923.41;;;20.44;37.97
73383;BME280;61600;48.126;11.542;2023-05-31T07:05:11;95914.66;;;20.42;37.85
73383;BME280;61600;48.126;11.542;2023-05-31T07:07:37;95914.03;;;20.70;37.63
73383;BME280;61600;48.126;11.542;2023-05-31T07:10:03;95915.97;;;20.69;36.82
73383;BME280;61600;48.126;11.542;2023-05-31T07:12:28;95910.72;;;20.88;37.87
73383;BME280;61600;48.126;11.542;2023-05-31T07:14:54;95914.06;;;20.94;37.47
73383;BME280;61600;48.126;11.542;2023-05-31T07:17:20;95911.78;;;20.96;37.81
73383;BME280;61600;48.126;11.542;2023-05-31T07:19:47;95909.91;;;20.88;36.87
73383;BME280;61600;48.126;11.542;2023-05-31T07:22:14;95913.59;;;20.92;37.21
73383;BME280;61600;48.126;11.542;2023-05-31T07:24:41;95914.88;;;20.94;37.51
73383;BME280;61600;48.126;11.542;2023-05-31T07:27:07;95908.31;;;21.11;37.29
73383;BME280;61600;48.126;11.542;2023-05-31T07:29:33;95912.44;;;21.05;37.00
73383;BME280;61600;48.126;11.542;2023-05-31T07:31:59;95914.78;;;21.15;37.11
73383;BME280;61600;48.126;11.542;2023-05-31T07:34:25;95913.84;;;20.99;36.68
73383;BME280;61600;48.126;11.542;2023-05-31T07:36:51;95912.00;;;21.03;36.82
73383;BME280;61600;48.126;11.542;2023-05-31T07:39:17;95911.09;;;21.11;36.51
73383;BME280;61600;48.126;11.542;2023-05-31T07:41:43;95913.06;;;21.11;37.21
73383;BME280;61600;48.126;11.542;2023-05-31T07:44:09;95910.47;;;20.81;37.08
73383;BME280;61600;48.126;11.542;2023-05-31T07:46:34;95911.31;;;21.06;37.08
73383;BME280;61600;48.126;11.542;2023-05-31T07:49:08;95906.22;;;21.08;37.16
73383;BME280;61600;48.126;11.542;2023-05-31T07:51:34;95908.34;;;21.23;37.13
73383;BME280;61600;48.126;11.542;2023-05-31T07:54:02;95908.13;;;21.28;36.49
73383;BME280;61600;48.126;11.542;2023-05-31T07:56:28;95905.91;;;21.22;37.01
73383;BME280;61600;48.126;11.542;2023-05-31T07:58:55;95906.34;;;21.60;36.24
73383;BME280;61600;48.126;11.542;2023-05-31T08:01:21;95899.19;;;21.47;36.52
73383;BME280;61600;48.126;11.542;2023-05-31T08:03:47;95901.38;;;21.54;36.44
73383;BME280;61600;48.126;11.542;2023-05-31T08:06:14;95896.19;;;21.52;36.38
73383;BME280;61600;48.126;11.542;2023-05-31T08:08:40;95890.28;;;21.54;36.11
73383;BME280;61600;48.126;11.542;2023-05-31T08:11:06;95888.38;;;21.82;35.72
73383;BME280;61600;48.126;11.542;2023-05-31T08:13:32;95889.91;;;21.79;35.31
73383;BME280;61600;48.126;11.542;2023-05-31T08:15:58;95890.56;;;21.88;35.19
73383;BME280;61600;48.126;11.542;2023-05-31T08:18:24;95880.81;;;22.07;35.35
73383;BME280;61600;48.126;11.542;2023-05-31T08:20:50;95878.81;;;21.92;35.56
73383;BME280;61600;48.126;11.542;2023-05-31T08:23:17;95892.28;;;22.05;35.38
73383;BME280;61600;48.126;11.542;2023-05-31T08:25:43;95886.97;;;22.00;34.65
73383;BME280;61600;48.126;11.542;2023-05-31T08:28:09;95879.25;;;22.21;34.45
73383;BME280;61600;48.126;11.542;2023-05-31T08:30:35;95886.25;;;22.31;34.17
73383;BME280;61600;48.126;11.542;2023-05-31T08:33:01;95875.59;;;22.17;34.42
73383;BME280;61600;48.126;11.542;2023-05-31T08:35:27;95872.16;;;22.36;34.51
73383;BME280;61600;48.126;11.542;2023-05-31T08:37:53;95873.75;;;22.37;33.88
73383;BME280;61600;48.126;11.542;2023-05-31T08:40:20;95877.25;;;22.50;33.33
73383;BME280;61600;48.126;11.542;2023-05-31T08:42:56;95872.28;;;22.55;33.12
73383;BME280;61600;48.126;11.542;2023-05-31T08:45:26;95876.25;;;22.42;33.17
73383;BME280;61600;48.126;11.542;2023-05-31T08:48:14;95876.91;;;22.51;33.31
73383;BME280;61600;48.126;11.542;2023-05-31T08:50:43;95867.56;;;22.71;33.19
73383;BME280;61600;48.126;11.542;2023-05-31T08:53:10;95872.41;;;22.74;33.06
73383;BME280;61600;48.126;11.542;2023-05-31T08:55:37;95869.78;;;22.66;33.28
73383;BME280;61600;48.126;11.542;2023-05-31T08:58:04;95871.41;;;22.82;32.99
73383;BME280;61600;48.126;11.542;2023-05-31T09:00:30;95866.31;;;22.84;33.05
73383;BME280;61600;48.126;11.542;2023-05-31T09:02:57;95865.69;;;22.91;33.10
73383;BME280;61600;48.126;11.542;2023-05-31T09:05:25;95862.44;;;23.05;31.93
73383;BME280;61600;48.126;11.542;2023-05-31T09:07:51;95859.91;;;23.15;31.28
73383;BME280;61600;48.126;11.542;2023-05-31T09:10:16;95869.06;;;23.16;31.52
73383;BME280;61600;48.126;11.542;2023-05-31T09:12:43;95858.34;;;23.14;31.58
73383;BME280;61600;48.126;11.542;2023-05-31T09:15:12;95869.44;;;23.14;31.45
73383;BME280;61600;48.126;11.542;2023-05-31T09:17:43;95868.59;;;23.29;30.99
73383;BME280;61600;48.126;11.542;2023-05-31T09:20:12;95861.53;;;23.32;31.63
73383;BME280;61600;48.126;11.542;2023-05-31T09:22:38;95857.84;;;23.44;32.26
73383;BME280;61600;48.126;11.542;2023-05-31T09:25:05;95862.97;;;23.42;31.48
73383;BME280;61600;48.126;11.542;2023-05-31T09:27:35;95866.50;;;23.58;31.45
73383;BME280;61600;48.126;11.542;2023-05-31T09:30:13;95861.50;;;23.48;31.01
73383;BME280;61600;48.126;11.542;2023-05-31T09:37:46;95864.09;;;23.75;30.40
73383;BME280;61600;48.126;11.542;2023-05-31T09:40:15;95863.00;;;23.61;29.81
73383;BME280;61600;48.126;11.542;2023-05-31T09:42:48;95862.50;;;23.74;29.87
73383;BME280;61600;48.126;11.542;2023-05-31T09:45:18;95866.97;;;23.79;29.93
73383;BME280;61600;48.126;11.542;2023-05-31T09:47:44;95860.59;;;23.98;30.27
73383;BME280;61600;48.126;11.542;2023-05-31T09:50:11;95860.81;;;23.89;29.70
73383;BME280;61600;48.126;11.542;2023-05-31T09:52:37;95866.09;;;23.94;28.96
73383;BME280;61600;48.126;11.542;2023-05-31T09:55:08;95858.63;;;23.98;29.91
73383;BME280;61600;48.126;11.542;2023-05-31T09:57:35;95854.69;;;23.80;30.23
73383;BME280;61600;48.126;11.542;2023-05-31T10:00:09;95851.75;;;24.11;29.87
73383;BME280;61600;48.126;11.542;2023-05-31T10:02:47;95861.78;;;23.97;29.90
73383;BME280;61600;48.126;11.542;2023-05-31T10:05:15;95844.69;;;24.14;29.23
73383;BME280;61600;48.126;11.542;2023-05-31T10:07:42;95852.88;;;24.26;29.70
73383;BME280;61600;48.126;11.542;2023-05-31T10:10:13;95851.66;;;24.46;28.86
73383;BME280;61600;48.126;11.542;2023-05-31T10:12:54;95850.75;;;24.19;28.55
73383;BME280;61600;48.126;11.542;2023-05-31T10:15:24;95851.25;;;24.67;28.76
73383;BME280;61600;48.126;11.542;2023-05-31T10:18:03;95854.97;;;24.74;28.67
73383;BME280;61600;48.126;11.542;2023-05-31T10:20:43;95847.69;;;24.89;28.10
73383;BME280;61600;48.126;11.542;2023-05-31T10:23:20;95847.88;;;24.77;27.84
73383;BME280;61600;48.126;11.542;2023-05-31T10:26:12;95846.31;;;25.02;27.89
73383;BME280;61600;48.126;11.542;2023-05-31T10:28:45;95842.16;;;25.15;27.19
73383;BME280;61600;48.126;11.542;2023-05-31T10:31:14;95836.06;;;25.32;27.15
73383;BME280;61600;48.126;11.542;2023-05-31T10:33:45;95840.44;;;25.33;26.91
73383;BME280;61600;48.126;11.542;2023-05-31T10:36:13;95841.00;;;25.43;27.29
73383;BME280;61600;48.126;11.542;2023-05-31T10:38:48;95841.03;;;25.46;27.00
73383;BME280;61600;48.126;11.542;2023-05-31T10:41:19;95832.91;;;25.60;26.35
73383;BME280;61600;48.126;11.542;2023-05-31T10:43:52;95830.63;;;25.69;26.33
73383;BME280;61600;48.126;11.542;2023-05-31T10:46:25;95827.22;;;25.83;25.51
73383;BME280;61600;48.126;11.542;2023-05-31T10:48:57;95820.63;;;25.95;25.20
73383;BME280;61600;48.126;11.542;2023-05-31T10:51:38;95830.47;;;25.85;25.25
73383;BME280;61600;48.126;11.542;2023-05-31T10:54:05;95829.88;;;26.02;25.10
73383;BME280;61600;48.126;11.542;2023-05-31T10:56:31;95825.78;;;26.26;25.26
73383;BME280;61600;48.126;11.542;2023-05-31T10:58:57;95815.94;;;26.36;25.74
73383;BME280;61600;48.126;11.542;2023-05-31T11:01:28;95821.34;;;26.58;24.88
73383;BME280;61600;48.126;11.542;2023-05-31T11:03:54;95814.22;;;26.64;25.29
73383;BME280;61600;48.126;11.542;2023-05-31T11:06:23;95821.94;;;26.78;24.92
73383;BME280;61600;48.126;11.542;2023-05-31T11:14:00;95802.75;;;26.73;24.52
73383;BME280;61600;48.126;11.542;2023-05-31T11:16:28;95810.94;;;26.96;24.81
73383;BME280;61600;48.126;11.542;2023-05-31T11:19:04;95814.91;;;26.91;23.95
73383;BME280;61600;48.126;11.542;2023-05-31T11:27:03;95800.09;;;27.42;23.75
73383;BME280;61600;48.126;11.542;2023-05-31T11:30:00;95797.75;;;27.44;23.02
73383;BME280;61600;48.126;11.542;2023-05-31T11:35:04;95797.06;;;27.61;23.93
73383;BME280;61600;48.126;11.542;2023-05-31T11:37:31;95791.81;;;27.49;24.08
73383;BME280;61600;48.126;11.542;2023-05-31T11:40:03;95792.50;;;27.39;23.67
73383;BME280;61600;48.126;11.542;2023-05-31T11:42:36;95793.84;;;27.59;23.84
73383;BME280;61600;48.126;11.542;2023-05-31T11:45:05;95797.88;;;27.61;23.94
73383;BME280;61600;48.126;11.542;2023-05-31T11:50:13;95802.91;;;28.10;23.20
73383;BME280;61600;48.126;11.542;2023-05-31T11:52:42;95792.59;;;28.36;22.47
73383;BME280;61600;48.126;11.542;2023-05-31T11:55:08;95792.94;;;28.20;22.50
73383;BME280;61600;48.126;11.542;2023-05-31T11:57:45;95791.03;;;28.49;22.53
73383;BME280;61600;48.126;11.542;2023-05-31T12:00:14;95790.22;;;28.45;23.45
73383;BME280;61600;48.126;11.542;2023-05-31T12:02:42;95787.84;;;28.61;23.16
73383;BME280;61600;48.126;11.542;2023-05-31T12:05:13;95783.09;;;28.72;23.14
73383;BME280;61600;48.126;11.542;2023-05-31T12:07:39;95775.84;;;28.46;22.74
73383;BME280;61600;48.126;11.542;2023-05-31T12:10:05;95782.63;;;28.49;23.06
73383;BME280;61600;48.126;11.542;2023-05-31T12:12:32;95786.69;;;28.69;22.92
73383;BME280;61600;48.126;11.542;2023-05-31T12:14:58;95782.22;;;28.61;22.98
73383;BME280;61600;48.126;11.542;2023-05-31T12:17:31;95775.03;;;28.49;23.54
73383;BME280;61600;48.126;11.542;2023-05-31T12:19:57;95778.72;;;28.89;23.30
73383;BME280;61600;48.126;11.542;2023-05-31T12:22:23;95774.25;;;28.66;22.77
73383;BME280;61600;48.126;11.542;2023-05-31T12:24:55;95772.31;;;28.92;22.40
73383;BME280;61600;48.126;11.542;2023-05-31T12:27:22;95779.47;;;29.35;22.24
73383;BME280;61600;48.126;11.542;2023-05-31T12:29:48;95764.59;;;29.59;21.03
73383;BME280;61600;48.126;11.542;2023-05-31T12:32:16;95771.84;;;29.43;21.64
73383;BME280;61600;48.126;11.542;2023-05-31T12:34:43;95765.41;;;29.60;21.69
73383;BME280;61600;48.126;11.542;2023-05-31T12:37:10;95760.53;;;29.85;20.68
73383;BME280;61600;48.126;11.542;2023-05-31T12:39:39;95768.94;;;29.82;21.52
73383;BME280;61600;48.126;11.542;2023-05-31T12:42:06;95770.16;;;29.73;20.91
73383;BME280;61600;48.126;11.542;2023-05-31T12:44:33;95766.19;;;29.71;20.90
73383;BME280;61600;48.126;11.542;2023-05-31T12:47:01;95751.22;;;30.09;20.63
73383;BME280;61600;48.126;11.542;2023-05-31T12:49:29;95756.25;;;29.27;20.52
73383;BME280;61600;48.126;11.542;2023-05-31T12:54:31;95770.16;;;29.73;20.39
73383;BME280;61600;48.126;11.542;2023-05-31T12:57:07;95767.75;;;29.83;19.77
73383;BME280;61600;48.126;11.542;2023-05-31T12:59:37;95759.72;;;29.92;19.90
73383;BME280;61600;48.126;11.542;2023-05-31T13:02:04;95762.50;;;29.92;20.42
73383;BME280;61600;48.126;11.542;2023-05-31T13:04:30;95751.13;;;30.23;19.87
73383;BME280;61600;48.126;11.542;2023-05-31T13:06:56;95751.41;;;30.54;19.78
73383;BME280;61600;48.126;11.542;2023-05-31T13:09:27;95749.56;;;30.85;21.00
73383;BME280;61600;48.126;11.542;2023-05-31T13:11:53;95747.59;;;30.78;21.69
73383;BME280;61600;48.126;11.542;2023-05-31T13:14:20;95742.50;;;31.10;21.25
73383;BME280;61600;48.126;11.542;2023-05-31T13:16:46;95740.91;;;31.13;21.40
73383;BME280;61600;48.126;11.542;2023-05-31T13:19:12;95733.66;;;31.12;21.70